Time;durP1;ratioP1;P1;durP2;ratioP2;P2;SDS_P1;SDS_P2;PMS_P1;PMS_P2;Temp;Humidity;BMP_temperature;BMP_pressure;BME280_temperature;BME280_humidity;BME280_pressure;Samples;Min_cycle;Max_cycle;Signal;HPM_P1;HPM_P2
2023/08/20 00:00:27;;;;;;;6.75;5.13;;;20.50;99.90;;;;;;5052552;28;20021;-79
2023/08/20 00:03:02;;;;;;;8.13;5.28;;;20.50;99.90;;;;;;5053403;28;20024;-79
2023/08/20 00:05:29;;;;;;;6.97;4.45;;;20.50;99.90;;;;;;5053024;28;20021;-78
2023/08/20 00:07:54;;;;;;;7.25;5.75;;;20.50;99.90;;;;;;5053346;28;20040;-79
2023/08/20 00:10:20;;;;;;;10.32;6.90;;;20.60;99.90;;;;;;5053267;28;20028;-79
2023/08/20 00:12:46;;;;;;;9.60;6.68;;;20.60;99.90;;;;;;5052327;28;20025;-79
2023/08/20 00:15:11;;;;;;;8.13;6.25;;;20.60;99.90;;;;;;5053099;28;20050;-79
2023/08/20 00:17:39;;;;;;;9.73;7.35;;;20.70;99.90;;;;;;5053688;28;20417;-79
2023/08/20 00:20:16;;;;;;;7.63;6.65;;;20.70;99.90;;;;;;5053779;28;20044;-79
2023/08/20 00:22:44;;;;;;;6.80;5.40;;;20.70;99.90;;;;;;5052431;28;20032;-79
2023/08/20 00:25:11;;;;;;;9.85;6.35;;;20.70;99.90;;;;;;5053426;28;20113;-79
2023/08/20 00:27:37;;;;;;;10.00;6.35;;;20.60;99.90;;;;;;5053021;28;20056;-76
2023/08/20 00:30:03;;;;;;;12.07;7.65;;;20.50;99.90;;;;;;5053211;28;20059;-76
2023/08/20 00:32:29;;;;;;;9.48;5.35;;;20.40;99.90;;;;;;5052288;28;20087;-76
2023/08/20 00:34:55;;;;;;;11.05;6.88;;;20.30;99.90;;;;;;5052314;28;20029;-76
2023/08/20 00:37:21;;;;;;;9.20;6.00;;;20.30;99.90;;;;;;5050028;28;20104;-76
2023/08/20 00:39:46;;;;;;;6.28;5.57;;;20.30;99.90;;;;;;5053919;28;20016;-76
2023/08/20 00:42:14;;;;;;;8.82;5.78;;;20.20;99.90;;;;;;5051913;28;20528;-76
2023/08/20 00:44:41;;;;;;;6.07;4.30;;;20.20;99.90;;;;;;5053726;28;20023;-76
2023/08/20 00:47:07;;;;;;;7.45;5.47;;;20.20;99.90;;;;;;5052058;28;20021;-76
2023/08/20 00:49:33;;;;;;;8.80;4.72;;;20.10;99.90;;;;;;5055272;28;20074;-76
2023/08/20 00:52:00;;;;;;;8.20;5.55;;;20.10;99.90;;;;;;5051558;28;20532;-75
2023/08/20 00:54:28;;;;;;;6.53;5.80;;;20.00;99.90;;;;;;5050484;28;20539;-76
2023/08/20 00:56:54;;;;;;;11.00;5.63;;;20.00;99.90;;;;;;5051511;28;20013;-76
2023/08/20 00:59:20;;;;;;;6.35;5.78;;;20.00;99.90;;;;;;5050112;28;20086;-76
2023/08/20 01:01:46;;;;;;;6.32;4.97;;;19.90;99.90;;;;;;5054516;28;20021;-76
2023/08/20 01:04:12;;;;;;;12.35;6.20;;;19.90;99.90;;;;;;5066084;28;20021;-76
2023/08/20 01:06:58;;;;;;;9.10;5.80;;;19.90;99.90;;;;;;5069251;28;20377;-76
2023/08/20 01:09:41;;;;;;;6.55;5.63;;;19.90;99.90;;;;;;5069045;28;20505;-75
2023/08/20 01:12:09;;;;;;;7.10;5.68;;;20.00;99.90;;;;;;5065519;28;20032;-75
2023/08/20 01:14:35;;;;;;;8.02;5.22;;;19.90;99.90;;;;;;5067841;28;20041;-76
2023/08/20 01:17:01;;;;;;;6.82;5.63;;;20.00;99.90;;;;;;5055939;28;20025;-76
2023/08/20 01:19:27;;;;;;;7.35;5.57;;;20.00;99.90;;;;;;5067203;28;20096;-76
2023/08/20 01:22:22;;;;;;;7.43;4.82;;;20.10;99.90;;;;;;5065320;28;20036;-77
2023/08/20 01:25:25;;;;;;;7.40;5.47;;;20.20;99.90;;;;;;5068256;28;20031;-76
2023/08/20 01:28:18;;;;;;;10.32;6.15;;;20.20;99.90;;;;;;5056080;28;20108;-75
2023/08/20 01:30:44;;;;;;;7.50;4.70;;;20.20;99.90;;;;;;5067846;28;20029;-76
2023/08/20 01:33:12;;;;;;;10.57;6.75;;;20.30;99.90;;;;;;5063159;28;20564;-76
2023/08/20 01:35:38;;;;;;;8.65;6.57;;;20.20;99.90;;;;;;5046493;28;20024;-76
2023/08/20 01:38:04;;;;;;;10.02;7.22;;;20.30;99.90;;;;;;5064914;28;20489;-76
2023/08/20 01:40:30;;;;;;;10.15;7.32;;;20.30;99.90;;;;;;5064227;28;20029;-76
2023/08/20 01:42:56;;;;;;;8.00;6.63;;;20.30;99.90;;;;;;5060877;28;20370;-76
2023/08/20 01:45:22;;;;;;;9.30;6.35;;;20.30;99.90;;;;;;5066159;28;20073;-76
2023/08/20 01:47:47;;;;;;;9.73;8.18;;;20.30;99.90;;;;;;5064879;28;20028;-76
2023/08/20 01:50:13;;;;;;;12.30;7.10;;;20.20;99.90;;;;;;5068324;28;20021;-76
2023/08/20 01:52:39;;;;;;;11.05;8.10;;;20.20;99.90;;;;;;5055132;28;20378;-76
2023/08/20 01:55:05;;;;;;;9.05;6.32;;;20.20;99.90;;;;;;5049930;28;20062;-75
2023/08/20 01:57:31;;;;;;;8.07;5.72;;;20.20;99.90;;;;;;5049855;28;20120;-76
2023/08/20 01:59:58;;;;;;;7.53;6.50;;;20.20;99.90;;;;;;5050513;28;20500;-75
2023/08/20 02:02:24;;;;;;;7.18;5.97;;;20.20;99.90;;;;;;5048763;28;20029;-75
2023/08/20 02:04:49;;;;;;;5.85;4.60;;;20.10;99.90;;;;;;5058664;28;20039;-75
2023/08/20 02:07:15;;;;;;;8.38;5.90;;;20.00;99.90;;;;;;5053718;28;20032;-75
2023/08/20 02:09:41;;;;;;;7.10;5.78;;;20.00;99.90;;;;;;5049927;28;20063;-75
2023/08/20 02:12:06;;;;;;;7.70;6.03;;;20.00;99.90;;;;;;5050519;28;20071;-76
2023/08/20 02:14:34;;;;;;;8.88;5.55;;;20.00;99.90;;;;;;5069243;28;20087;-75
2023/08/20 02:17:01;;;;;;;8.43;5.68;;;19.80;99.90;;;;;;5068622;28;20024;-75
2023/08/20 02:19:27;;;;;;;7.20;5.20;;;19.80;99.90;;;;;;5068728;28;20013;-75
2023/08/20 02:21:53;;;;;;;6.75;6.05;;;19.80;99.90;;;;;;5068327;28;20024;-76
2023/08/20 02:24:18;;;;;;;8.27;5.80;;;19.80;99.90;;;;;;5068232;28;20034;-75
2023/08/20 02:26:44;;;;;;;6.45;5.80;;;19.80;99.90;;;;;;5057558;28;20104;-75
2023/08/20 02:29:10;;;;;;;7.10;5.38;;;19.70;99.90;;;;;;5068541;28;20049;-75
2023/08/20 02:31:36;;;;;;;10.00;5.85;;;19.70;99.90;;;;;;5068217;28;20427;-75
2023/08/20 02:34:01;;;;;;;8.73;6.22;;;19.60;99.90;;;;;;5069096;28;20523;-75
2023/08/20 02:36:27;;;;;;;6.32;5.32;;;19.60;99.90;;;;;;5067287;28;20020;-75
2023/08/20 02:38:53;;;;;;;7.53;5.65;;;19.60;99.90;;;;;;5068925;28;20031;-75
2023/08/20 02:41:18;;;;;;;6.75;5.55;;;19.50;99.90;;;;;;5066012;28;20024;-75
2023/08/20 02:43:45;;;;;;;10.20;5.05;;;19.50;99.90;;;;;;5067226;28;20551;-75
2023/08/20 02:46:10;;;;;;;8.55;6.07;;;19.40;99.90;;;;;;5065867;28;20082;-75
2023/08/20 02:48:36;;;;;;;6.40;4.88;;;19.40;99.90;;;;;;5067916;28;20485;-75
2023/08/20 02:51:02;;;;;;;7.65;5.32;;;19.40;99.90;;;;;;5054896;28;20086;-75
2023/08/20 02:53:28;;;;;;;7.35;5.95;;;19.30;99.90;;;;;;5068402;28;20431;-75
2023/08/20 02:55:54;;;;;;;8.40;6.25;;;19.30;99.90;;;;;;5056870;28;20115;-75
2023/08/20 02:58:20;;;;;;;9.65;5.38;;;19.20;99.90;;;;;;5061662;28;20078;-75
2023/08/20 03:00:45;;;;;;;7.32;5.97;;;19.20;99.90;;;;;;5068165;28;20362;-75
2023/08/20 03:03:11;;;;;;;6.55;5.88;;;19.20;99.90;;;;;;5068276;28;20013;-75
2023/08/20 03:05:37;;;;;;;7.97;5.88;;;19.10;99.90;;;;;;5053756;28;20027;-75
2023/08/20 03:08:03;;;;;;;8.07;6.13;;;19.10;99.90;;;;;;5048912;28;20025;-75
2023/08/20 03:10:30;;;;;;;6.78;6.18;;;19.10;99.90;;;;;;5049922;28;20082;-75
2023/08/20 03:12:56;;;;;;;10.27;7.55;;;19.00;99.90;;;;;;5060332;28;20021;-75
2023/08/20 03:15:22;;;;;;;10.25;7.38;;;19.00;99.90;;;;;;5047498;28;20140;-75
2023/08/20 03:17:47;;;;;;;8.85;7.03;;;18.90;99.90;;;;;;5049321;28;20055;-75
2023/08/20 03:20:13;;;;;;;9.30;8.20;;;18.90;99.90;;;;;;5048287;28;20374;-75
2023/08/20 03:22:39;;;;;;;8.88;7.97;;;18.90;99.90;;;;;;5057410;28;20021;-76
2023/08/20 03:25:05;;;;;;;10.55;9.23;;;18.80;99.90;;;;;;5053082;28;20521;-75
2023/08/20 03:27:30;;;;;;;11.93;9.30;;;18.90;99.90;;;;;;5048677;28;20036;-75
2023/08/20 03:29:56;;;;;;;10.43;9.32;;;18.80;99.90;;;;;;5048577;28;20029;-75
2023/08/20 03:32:22;;;;;;;10.65;9.60;;;18.80;99.90;;;;;;5048291;28;20025;-75
2023/08/20 03:34:48;;;;;;;10.95;9.23;;;18.70;99.90;;;;;;5048925;28;20021;-75
2023/08/20 03:37:14;;;;;;;12.38;9.25;;;18.70;99.90;;;;;;5056042;28;20028;-75
2023/08/20 03:39:39;;;;;;;12.93;10.63;;;18.70;99.90;;;;;;5066991;28;20077;-75
2023/08/20 03:42:05;;;;;;;14.80;11.55;;;18.70;99.90;;;;;;5056766;28;20021;-75
2023/08/20 03:44:31;;;;;;;13.02;11.82;;;18.60;99.90;;;;;;5066826;28;20044;-75
2023/08/20 03:46:57;;;;;;;14.27;11.20;;;18.60;99.90;;;;;;5061599;28;20040;-75
2023/08/20 03:49:22;;;;;;;12.73;11.43;;;18.60;99.90;;;;;;5066072;28;20033;-75
2023/08/20 03:51:48;;;;;;;14.55;11.75;;;18.60;99.90;;;;;;5049985;28;20036;-75
2023/08/20 03:54:14;;;;;;;16.52;12.55;;;18.50;99.90;;;;;;5046442;28;20401;-76
2023/08/20 03:56:39;;;;;;;14.98;13.57;;;18.50;99.90;;;;;;5049103;28;20075;-75
2023/08/20 03:59:05;;;;;;;14.50;11.98;;;18.50;99.90;;;;;;5048002;28;20505;-75
2023/08/20 04:01:31;;;;;;;16.58;12.05;;;18.50;99.90;;;;;;5048501;28;20045;-75
2023/08/20 04:03:57;;;;;;;14.43;12.82;;;18.50;99.90;;;;;;5049466;28;20111;-75
2023/08/20 04:06:22;;;;;;;15.10;12.65;;;18.40;99.90;;;;;;5048047;28;20029;-75
2023/08/20 04:08:48;;;;;;;15.07;13.20;;;18.40;99.90;;;;;;5052981;28;20386;-75
2023/08/20 04:11:14;;;;;;;13.25;12.00;;;18.40;99.90;;;;;;5052593;28;20016;-75
2023/08/20 04:13:42;;;;;;;13.93;12.52;;;18.40;99.90;;;;;;5052476;28;20017;-75
2023/08/20 04:16:08;;;;;;;13.27;11.88;;;18.40;99.90;;;;;;5052030;28;20433;-76
2023/08/20 04:18:34;;;;;;;13.70;12.27;;;18.40;99.90;;;;;;5052672;28;20052;-75
2023/08/20 04:20:59;;;;;;;14.43;11.90;;;18.40;99.90;;;;;;5052934;28;20104;-75
2023/08/20 04:23:25;;;;;;;12.70;11.40;;;18.30;99.90;;;;;;5053146;28;20031;-75
2023/08/20 04:25:50;;;;;;;16.08;14.52;;;18.30;99.90;;;;;;5052942;28;20021;-75
2023/08/20 04:28:16;;;;;;;13.98;11.60;;;18.30;99.90;;;;;;5053147;28;20108;-75
2023/08/20 04:30:43;;;;;;;14.93;11.57;;;18.20;99.90;;;;;;5053315;28;20032;-75
2023/08/20 04:33:09;;;;;;;12.48;11.23;;;18.20;99.90;;;;;;5053888;28;20020;-75
2023/08/20 04:35:34;;;;;;;12.48;11.27;;;18.20;99.90;;;;;;5053171;28;20047;-75
2023/08/20 04:38:00;;;;;;;12.15;11.00;;;18.20;99.90;;;;;;5054964;28;20355;-75
2023/08/20 04:40:25;;;;;;;13.15;11.55;;;18.20;99.90;;;;;;5051892;28;20052;-76
2023/08/20 04:42:51;;;;;;;17.80;12.38;;;18.10;99.90;;;;;;5054489;28;20512;-75
2023/08/20 04:45:19;;;;;;;15.13;11.93;;;18.10;99.90;;;;;;5040732;28;20066;-75
2023/08/20 04:47:48;;;;;;;12.75;11.55;;;18.10;99.90;;;;;;5054559;28;20021;-75
2023/08/20 04:50:13;;;;;;;16.10;14.25;;;18.10;99.90;;;;;;5053032;28;20178;-75
2023/08/20 04:52:39;;;;;;;15.20;13.52;;;18.10;99.90;;;;;;5050196;28;20565;-75
2023/08/20 04:55:09;;;;;;;14.00;12.60;;;18.10;99.90;;;;;;5050964;28;20029;-75
2023/08/20 04:57:34;;;;;;;14.38;12.98;;;18.20;99.90;;;;;;5051075;28;20029;-75
2023/08/20 05:00:00;;;;;;;14.02;10.77;;;18.10;99.90;;;;;;5051771;28;20371;-75
2023/08/20 05:02:26;;;;;;;12.98;11.13;;;18.10;99.90;;;;;;5050480;28;20025;-75
2023/08/20 05:04:51;;;;;;;15.75;12.52;;;18.20;99.90;;;;;;5051733;28;20417;-75
2023/08/20 05:07:17;;;;;;;14.95;13.35;;;18.20;99.90;;;;;;5050837;28;20079;-75
2023/08/20 05:09:42;;;;;;;12.52;11.32;;;18.10;99.90;;;;;;5051162;28;20025;-75
2023/08/20 05:12:08;;;;;;;15.18;12.80;;;18.20;99.90;;;;;;5050823;28;20029;-75
2023/08/20 05:14:34;;;;;;;14.50;11.55;;;18.20;99.90;;;;;;5050627;28;20386;-76
2023/08/20 05:16:59;;;;;;;13.82;12.05;;;18.10;99.90;;;;;;5051711;28;20474;-75
2023/08/20 05:19:25;;;;;;;15.25;12.18;;;18.20;99.90;;;;;;5049751;28;20215;-75
2023/08/20 05:21:52;;;;;;;16.27;12.23;;;18.30;99.90;;;;;;5050908;28;20021;-75
2023/08/20 05:24:18;;;;;;;13.38;12.02;;;18.30;99.90;;;;;;5050469;28;20039;-75
2023/08/20 05:26:44;;;;;;;14.45;13.00;;;18.30;99.90;;;;;;5051405;28;20021;-75
2023/08/20 05:29:09;;;;;;;14.02;12.63;;;18.40;99.90;;;;;;5050766;28;20025;-76
2023/08/20 05:31:35;;;;;;;14.75;13.30;;;18.40;99.90;;;;;;5050277;28;20029;-75
2023/08/20 05:34:00;;;;;;;13.45;12.07;;;18.40;99.90;;;;;;5050964;28;20385;-75
2023/08/20 05:36:26;;;;;;;14.73;11.95;;;18.40;99.90;;;;;;5049576;28;20032;-75
2023/08/20 05:38:51;;;;;;;14.50;11.18;;;18.40;99.90;;;;;;5050479;28;20482;-75
2023/08/20 05:41:17;;;;;;;15.82;13.70;;;18.40;99.90;;;;;;5050244;28;20021;-75
2023/08/20 05:43:43;;;;;;;14.02;12.52;;;18.50;99.90;;;;;;5051235;28;20024;-75
2023/08/20 05:46:08;;;;;;;14.60;11.27;;;18.60;99.90;;;;;;5050747;28;20021;-75
2023/08/20 05:48:34;;;;;;;14.40;13.00;;;18.60;99.90;;;;;;5050358;28;20025;-75
2023/08/20 05:50:59;;;;;;;14.73;11.38;;;18.60;99.90;;;;;;5058311;28;20032;-75
2023/08/20 05:53:25;;;;;;;16.10;12.80;;;18.70;99.90;;;;;;5068608;28;20048;-75
2023/08/20 05:55:50;;;;;;;14.77;13.18;;;18.70;99.90;;;;;;5055784;28;20496;-75
2023/08/20 05:58:16;;;;;;;17.25;12.70;;;18.80;99.90;;;;;;5049486;28;20024;-75
2023/08/20 06:00:42;;;;;;;14.13;12.20;;;18.90;99.90;;;;;;5050019;28;20108;-75
2023/08/20 06:03:07;;;;;;;13.80;12.15;;;19.00;99.90;;;;;;5049609;28;20021;-75
2023/08/20 06:05:36;;;;;;;13.07;11.43;;;19.10;99.90;;;;;;5063281;28;20036;-75
2023/08/20 06:08:02;;;;;;;15.82;12.00;;;19.20;99.90;;;;;;5055082;28;20445;-76
2023/08/20 06:10:27;;;;;;;13.20;10.85;;;19.30;99.90;;;;;;5063533;28;20031;-75
2023/08/20 06:12:53;;;;;;;12.35;10.02;;;19.30;99.90;;;;;;5069755;28;20473;-75
2023/08/20 06:15:19;;;;;;;15.20;11.35;;;19.30;99.90;;;;;;5067721;28;20028;-76
2023/08/20 06:17:45;;;;;;;12.00;10.80;;;19.40;99.90;;;;;;5069080;28;20036;-75
2023/08/20 06:20:11;;;;;;;16.38;11.98;;;19.40;99.90;;;;;;5068469;28;20469;-76
2023/08/20 06:22:37;;;;;;;11.70;10.35;;;19.40;99.90;;;;;;5068606;28;20103;-76
2023/08/20 06:25:04;;;;;;;11.65;10.55;;;19.40;99.90;;;;;;5067585;28;20454;-76
2023/08/20 06:27:30;;;;;;;11.93;9.98;;;19.40;99.90;;;;;;5057069;28;20059;-76
2023/08/20 06:29:56;;;;;;;11.13;9.48;;;19.50;99.90;;;;;;5069250;28;20374;-76
2023/08/20 06:32:21;;;;;;;12.73;10.10;;;19.50;99.90;;;;;;5067736;28;20028;-76
2023/08/20 06:34:47;;;;;;;13.98;9.15;;;19.50;99.90;;;;;;5068741;28;20441;-76
2023/08/20 06:37:13;;;;;;;13.77;10.00;;;19.60;99.90;;;;;;5068047;28;20024;-76
2023/08/20 06:39:38;;;;;;;8.60;7.80;;;19.60;99.90;;;;;;5057219;28;20025;-76
2023/08/20 06:42:04;;;;;;;10.88;8.20;;;19.60;99.90;;;;;;5068674;28;20104;-76
2023/08/20 06:44:30;;;;;;;15.13;7.35;;;19.70;99.90;;;;;;5068005;28;20424;-76
2023/08/20 06:46:55;;;;;;;8.93;6.03;;;19.70;99.90;;;;;;5067806;28;20040;-76
2023/08/20 06:49:21;;;;;;;13.18;7.30;;;19.70;99.90;;;;;;5067301;28;20602;-76
2023/08/20 06:51:46;;;;;;;9.73;7.47;;;19.70;99.90;;;;;;5068468;28;20389;-75
2023/08/20 06:54:12;;;;;;;10.02;6.40;;;19.80;99.90;;;;;;5060370;28;20437;-76
2023/08/20 06:56:37;;;;;;;11.93;6.93;;;19.80;99.90;;;;;;5061359;28;20033;-76
2023/08/20 06:59:03;;;;;;;9.60;7.68;;;19.90;99.90;;;;;;5049062;28;20111;-76
2023/08/20 07:01:29;;;;;;;11.20;5.97;;;19.90;99.90;;;;;;5048490;28;20025;-76
2023/08/20 07:03:55;;;;;;;10.40;6.70;;;20.00;99.90;;;;;;5050213;28;20029;-76
2023/08/20 07:06:20;;;;;;;13.75;7.47;;;20.00;99.90;;;;;;5048822;28;20053;-75
2023/08/20 07:08:46;;;;;;;8.25;5.50;;;20.00;99.90;;;;;;5050676;28;20051;-76
2023/08/20 07:11:11;;;;;;;11.32;6.10;;;20.00;99.90;;;;;;5049742;28;20100;-77
2023/08/20 07:13:37;;;;;;;9.93;5.70;;;20.10;99.90;;;;;;5050724;28;20040;-73
2023/08/20 07:16:03;;;;;;;7.55;5.40;;;20.10;99.90;;;;;;5050313;28;20186;-73
2023/08/20 07:18:29;;;;;;;8.50;4.47;;;20.20;99.90;;;;;;5051060;28;20075;-73
2023/08/20 07:20:55;;;;;;;12.63;6.18;;;20.30;99.90;;;;;;5050065;28;20413;-73
2023/08/20 07:23:22;;;;;;;8.63;4.95;;;20.30;99.90;;;;;;5051023;28;20074;-73
2023/08/20 07:25:48;;;;;;;7.65;4.57;;;20.40;99.90;;;;;;5049716;28;20452;-73
2023/08/20 07:28:14;;;;;;;7.68;4.20;;;20.50;99.90;;;;;;5050655;28;20491;-73
2023/08/20 07:30:40;;;;;;;8.10;4.30;;;20.50;99.90;;;;;;5048277;28;20071;-73
2023/08/20 07:33:06;;;;;;;8.52;4.68;;;20.60;99.90;;;;;;5051083;28;20493;-73
2023/08/20 07:35:32;;;;;;;7.95;4.85;;;20.70;99.90;;;;;;5049240;28;20041;-73
2023/08/20 07:37:57;;;;;;;11.02;4.60;;;20.70;99.90;;;;;;5051370;28;20021;-72
2023/08/20 07:40:23;;;;;;;8.30;3.92;;;20.80;99.90;;;;;;5049164;28;20592;-72
2023/08/20 07:42:50;;;;;;;10.13;5.00;;;20.80;99.90;;;;;;5052028;28;20017;-72
2023/08/20 07:45:15;;;;;;;8.77;4.10;;;20.90;99.90;;;;;;5050718;28;20083;-72
2023/08/20 07:47:41;;;;;;;9.00;3.53;;;21.00;99.90;;;;;;5054477;28;20498;-73
2023/08/20 07:50:07;;;;;;;8.10;3.20;;;21.10;99.90;;;;;;5060092;28;20026;-72
2023/08/20 07:52:33;;;;;;;10.60;3.17;;;21.10;99.90;;;;;;5071086;28;20032;-72
2023/08/20 07:54:58;;;;;;;7.72;3.00;;;21.20;99.90;;;;;;5072553;28;20035;-72
2023/08/20 07:57:24;;;;;;;7.63;3.30;;;21.30;99.90;;;;;;5070271;28;20029;-73
2023/08/20 07:59:51;;;;;;;8.30;3.80;;;21.40;99.90;;;;;;5059638;28;20070;-72
2023/08/20 08:02:16;;;;;;;8.95;4.40;;;21.40;99.90;;;;;;5070264;28;20074;-72
2023/08/20 08:04:43;;;;;;;6.07;2.30;;;21.50;99.90;;;;;;5051655;28;20029;-72
2023/08/20 08:07:10;;;;;;;6.70;2.45;;;21.50;99.90;;;;;;5052027;28;20142;-72
2023/08/20 08:09:35;;;;;;;5.18;2.13;;;21.60;99.90;;;;;;5059611;28;20094;-73
2023/08/20 08:12:02;;;;;;;3.65;1.90;;;21.60;99.90;;;;;;5071940;28;20024;-72
2023/08/20 08:14:28;;;;;;;7.03;3.05;;;21.70;99.90;;;;;;5062075;28;20060;-73
2023/08/20 08:16:56;;;;;;;9.75;2.20;;;21.80;99.90;;;;;;5066272;28;20051;-72
2023/08/20 08:19:22;;;;;;;5.97;2.17;;;21.80;99.90;;;;;;5070978;28;20025;-73
2023/08/20 08:21:48;;;;;;;8.73;2.63;;;21.90;99.90;;;;;;5057060;28;20418;-72
2023/08/20 08:24:15;;;;;;;11.35;2.45;;;22.00;99.90;;;;;;5050796;28;20021;-74
2023/08/20 08:26:41;;;;;;;9.02;2.92;;;22.00;99.90;;;;;;5052624;28;20032;-72
2023/08/20 08:29:08;;;;;;;7.15;2.70;;;22.10;99.90;;;;;;5051802;28;20036;-72
2023/08/20 08:31:34;;;;;;;7.32;2.28;;;22.20;99.90;;;;;;5051532;28;20052;-72
2023/08/20 08:34:00;;;;;;;5.38;1.90;;;22.20;99.90;;;;;;5051560;28;20398;-72
2023/08/20 08:36:25;;;;;;;5.35;1.52;;;22.30;99.90;;;;;;5051998;28;20415;-72
2023/08/20 08:38:51;;;;;;;3.72;1.40;;;22.40;99.90;;;;;;5067376;28;20437;-72
2023/08/20 08:41:20;;;;;;;6.30;1.20;;;22.40;99.90;;;;;;5050826;28;20029;-72
2023/08/20 08:43:47;;;;;;;4.70;1.80;;;22.40;99.90;;;;;;5051959;28;20118;-72
2023/08/20 08:46:17;;;;;;;6.93;1.70;;;22.50;99.90;;;;;;5052009;28;20031;-72
2023/08/20 08:48:44;;;;;;;3.50;0.98;;;22.60;99.90;;;;;;5051455;28;20028;-72
2023/08/20 08:51:11;;;;;;;4.68;1.55;;;22.60;99.90;;;;;;5066853;28;20028;-72
2023/08/20 08:53:37;;;;;;;4.07;1.30;;;22.60;99.70;;;;;;5061374;28;20037;-72
2023/08/20 08:56:05;;;;;;;5.43;1.23;;;22.70;99.50;;;;;;5065627;28;20884;-72
2023/08/20 08:58:31;;;;;;;8.10;1.30;;;22.70;99.40;;;;;;5062730;28;20021;-72
2023/08/20 09:00:56;;;;;;;3.92;1.25;;;22.80;99.20;;;;;;5066830;28;20541;-71
2023/08/20 09:03:24;;;;;;;3.78;1.13;;;22.80;99.10;;;;;;5069462;28;20099;-72
2023/08/20 09:05:54;;;;;;;4.35;1.15;;;22.80;98.80;;;;;;5068611;28;20031;-72
2023/08/20 09:08:20;;;;;;;5.10;1.27;;;22.90;98.70;;;;;;5062653;28;20039;-72
2023/08/20 09:10:46;;;;;;;3.60;1.33;;;22.90;98.50;;;;;;5059227;28;20096;-72
2023/08/20 09:13:11;;;;;;;3.67;0.90;;;23.00;98.40;;;;;;5060746;28;20103;-72
2023/08/20 09:15:37;;;;;;;3.33;1.25;;;23.00;98.20;;;;;;5058555;28;20541;-72
2023/08/20 09:18:03;;;;;;;2.92;0.82;;;23.00;97.70;;;;;;5059417;28;20044;-73
2023/08/20 09:20:36;;;;;;;2.22;0.85;;;23.10;97.50;;;;;;5058569;28;20028;-73
2023/08/20 09:23:02;;;;;;;3.70;1.35;;;23.10;97.30;;;;;;5061944;28;20103;-72
2023/08/20 09:25:28;;;;;;;5.72;1.30;;;23.20;97.20;;;;;;5057361;28;20418;-72
2023/08/20 09:27:54;;;;;;;2.72;0.60;;;23.20;96.70;;;;;;5057462;28;20436;-72
2023/08/20 09:30:20;;;;;;;3.25;0.88;;;23.20;96.20;;;;;;5057517;28;20017;-74
2023/08/20 09:33:02;;;;;;;2.97;0.98;;;23.30;96.20;;;;;;5063467;28;20038;-73
2023/08/20 09:35:27;;;;;;;2.78;0.52;;;23.30;95.90;;;;;;5058375;28;20060;-73
2023/08/20 09:37:59;;;;;;;3.45;0.90;;;23.40;95.30;;;;;;5062790;28;20044;-73
2023/08/20 09:40:25;;;;;;;2.60;0.68;;;23.40;95.10;;;;;;5053966;28;20071;-73
2023/08/20 09:42:52;;;;;;;4.07;1.00;;;23.50;95.20;;;;;;5063214;28;20063;-73
2023/08/20 09:45:20;;;;;;;4.30;1.00;;;23.60;95.20;;;;;;5059416;28;20028;-73
2023/08/20 09:47:48;;;;;;;3.58;0.57;;;23.60;94.90;;;;;;5062971;28;20054;-73
2023/08/20 09:50:17;;;;;;;3.20;0.63;;;23.60;94.70;;;;;;5064997;28;20012;-73
2023/08/20 09:53:02;;;;;;;3.13;0.75;;;23.70;94.60;;;;;;5053653;28;20115;-73
2023/08/20 09:55:34;;;;;;;3.47;0.88;;;23.80;94.70;;;;;;5056090;28;20032;-73
2023/08/20 09:58:02;;;;;;;3.83;0.77;;;23.90;94.50;;;;;;5060817;28;20384;-73
2023/08/20 10:00:28;;;;;;;3.83;0.80;;;23.90;94.50;;;;;;5065893;28;20108;-72
2023/08/20 10:02:54;;;;;;;3.35;0.65;;;23.90;94.40;;;;;;5069019;28;20024;-76
2023/08/20 10:05:21;;;;;;;2.83;1.23;;;24.00;94.20;;;;;;5061292;28;20036;-73
2023/08/20 10:07:48;;;;;;;4.55;1.08;;;24.00;94.30;;;;;;5068765;28;20524;-73
2023/08/20 10:10:16;;;;;;;3.00;0.55;;;24.20;94.40;;;;;;5056100;28;20112;-76
2023/08/20 10:12:43;;;;;;;2.17;0.60;;;24.20;94.00;;;;;;5056009;28;20130;-76
2023/08/20 10:15:11;;;;;;;2.63;0.68;;;24.30;93.80;;;;;;5049039;28;20036;-76
2023/08/20 10:17:39;;;;;;;3.78;0.65;;;24.30;93.60;;;;;;5049273;28;20022;-75
2023/08/20 10:20:05;;;;;;;2.80;0.77;;;24.40;93.40;;;;;;5049234;28;20017;-76
2023/08/20 10:22:39;;;;;;;2.83;1.00;;;24.40;93.20;;;;;;5055939;28;20023;-75
2023/08/20 10:25:09;;;;;;;2.40;0.80;;;24.50;92.90;;;;;;5067196;28;20047;-76
2023/08/20 10:27:37;;;;;;;1.98;0.50;;;24.50;92.90;;;;;;5058216;28;20055;-76
2023/08/20 10:30:15;;;;;;;2.05;0.50;;;24.60;93.00;;;;;;5059964;28;20516;-74
2023/08/20 10:32:48;;;;;;;1.77;0.60;;;24.60;93.10;;;;;;5060745;28;20107;-73
2023/08/20 10:35:27;;;;;;;3.00;0.63;;;24.70;92.90;;;;;;5056530;28;20162;-74
2023/08/20 10:38:05;;;;;;;2.28;0.40;;;24.70;92.50;;;;;;5056709;28;20485;-73
2023/08/20 10:40:57;;;;;;;1.58;0.50;;;24.70;92.30;;;;;;5054257;28;20086;-75
2023/08/20 10:43:35;;;;;;;1.02;0.30;;;24.70;92.10;;;;;;5049490;28;20120;-74
2023/08/20 10:46:23;;;;;;;4.38;0.40;;;24.80;91.90;;;;;;5050256;28;20029;-73
2023/08/20 10:48:50;;;;;;;1.25;0.40;;;24.80;91.30;;;;;;5050254;28;20355;-72
2023/08/20 10:51:31;;;;;;;1.50;0.35;;;24.80;91.00;;;;;;5062329;28;20048;-71
2023/08/20 10:54:00;;;;;;;2.92;0.40;;;24.80;90.20;;;;;;5060960;28;20076;-74
2023/08/20 10:56:38;;;;;;;1.60;0.55;;;24.80;90.50;;;;;;5061273;28;20036;-71
2023/08/20 10:59:30;;;;;;;3.17;0.40;;;24.90;90.60;;;;;;5064988;28;20497;-72
2023/08/20 11:01:57;;;;;;;1.92;0.88;;;24.90;90.60;;;;;;5068085;28;20047;-72
2023/08/20 11:04:27;;;;;;;2.78;0.50;;;24.90;90.40;;;;;;5066603;28;20025;-74
2023/08/20 11:06:55;;;;;;;1.88;0.70;;;25.00;90.30;;;;;;5066959;28;20119;-73
2023/08/20 11:09:22;;;;;;;2.53;0.65;;;25.00;90.20;;;;;;5066346;28;20029;-71
2023/08/20 11:11:50;;;;;;;4.22;0.93;;;25.00;90.30;;;;;;5065410;28;20024;-71
2023/08/20 11:14:17;;;;;;;2.03;0.50;;;25.00;90.20;;;;;;5067114;28;20037;-72
2023/08/20 11:16:44;;;;;;;1.55;0.65;;;25.00;90.40;;;;;;5068313;28;20021;-72
2023/08/20 11:19:09;;;;;;;2.10;0.70;;;25.10;90.40;;;;;;5066405;28;20020;-72
2023/08/20 11:21:37;;;;;;;3.83;0.90;;;25.10;90.30;;;;;;5068260;28;20036;-73
2023/08/20 11:24:03;;;;;;;2.95;0.65;;;25.10;90.00;;;;;;5068144;28;20025;-71
2023/08/20 11:26:29;;;;;;;2.03;0.50;;;25.10;89.60;;;;;;5054679;28;20123;-73
2023/08/20 11:28:54;;;;;;;3.08;0.77;;;25.20;88.40;;;;;;5067962;28;20103;-72
2023/08/20 11:31:20;;;;;;;3.85;0.70;;;25.20;87.80;;;;;;5067401;28;20028;-70
2023/08/20 11:33:47;;;;;;;2.83;0.60;;;25.20;86.90;;;;;;5066774;28;20085;-70
2023/08/20 11:36:14;;;;;;;1.60;0.50;;;25.20;86.40;;;;;;5067681;28;20077;-71
2023/08/20 11:38:40;;;;;;;3.03;0.70;;;25.20;86.30;;;;;;5067927;28;20032;-72
2023/08/20 11:41:06;;;;;;;2.67;0.50;;;25.20;85.70;;;;;;5056041;28;20033;-72
2023/08/20 11:43:32;;;;;;;4.25;0.57;;;25.20;85.10;;;;;;5066593;28;20033;-72
2023/08/20 11:45:58;;;;;;;3.08;0.50;;;25.20;85.10;;;;;;5083415;28;20025;-72
2023/08/20 11:48:24;;;;;;;4.70;1.27;;;25.10;84.40;;;;;;5066963;28;20500;-72
2023/08/20 11:50:49;;;;;;;4.57;0.68;;;25.20;84.70;;;;;;5055198;28;20017;-72
2023/08/20 11:53:20;;;;;;;3.38;0.77;;;25.20;85.20;;;;;;5060986;28;20041;-71
2023/08/20 11:55:46;;;;;;;2.95;0.60;;;25.20;85.50;;;;;;5047993;28;20064;-72
2023/08/20 11:58:12;;;;;;;1.52;0.43;;;25.20;85.10;;;;;;5058923;28;20033;-72
2023/08/20 12:00:38;;;;;;;4.97;0.93;;;25.20;84.90;;;;;;5050661;28;20533;-73
2023/08/20 12:03:05;;;;;;;1.92;0.57;;;25.20;84.50;;;;;;5066677;28;20108;-73
2023/08/20 12:05:31;;;;;;;2.33;0.60;;;25.30;85.20;;;;;;5062509;28;20025;-73
2023/08/20 12:08:00;;;;;;;1.60;0.50;;;25.30;85.70;;;;;;5064984;28;20056;-74
2023/08/20 12:10:28;;;;;;;1.40;0.43;;;25.30;85.90;;;;;;5063745;28;20478;-74
2023/08/20 12:12:54;;;;;;;2.45;0.63;;;25.30;86.70;;;;;;5063653;28;20067;-73
2023/08/20 12:15:20;;;;;;;5.50;0.70;;;25.40;85.50;;;;;;5064067;28;20024;-74
2023/08/20 12:18:04;;;;;;;4.63;0.60;;;25.40;85.60;;;;;;5065731;28;20025;-72
2023/08/20 12:20:31;;;;;;;;;;;25.40;85.30;;;;;;5061713;28;20036;-72
2023/08/20 12:23:04;;;;;;;3.42;0.80;;;25.40;85.90;;;;;;5057751;28;19916;-72
2023/08/20 12:25:32;;;;;;;2.40;0.55;;;25.40;85.00;;;;;;5054008;28;20029;-74
2023/08/20 12:27:57;;;;;;;3.72;0.65;;;25.40;85.40;;;;;;5056921;28;20021;-72
2023/08/20 12:30:23;;;;;;;2.63;0.63;;;25.40;84.50;;;;;;5055057;28;20485;-72
2023/08/20 12:32:49;;;;;;;4.25;0.50;;;25.50;83.90;;;;;;5060311;28;20565;-72
2023/08/20 12:35:14;;;;;;;5.35;0.82;;;25.50;84.10;;;;;;5060032;28;20028;-73
2023/08/20 12:37:40;;;;;;;4.18;0.70;;;25.50;84.10;;;;;;5069643;28;20473;-74
2023/08/20 12:40:10;;;;;;;2.28;0.70;;;25.60;84.30;;;;;;5066932;28;20381;-74